createdAt,value
2019-03-15T00:01:44.646Z,7.50
2019-03-15T00:04:12.871Z,7.40
2019-03-15T00:06:41.088Z,7.40
2019-03-15T00:09:09.311Z,7.50
2019-03-15T00:11:37.531Z,7.40
2019-03-15T00:14:05.799Z,7.20
2019-03-15T00:16:34.017Z,7.10
2019-03-15T00:19:02.357Z,7.00
2019-03-15T00:21:30.567Z,7.20
2019-03-15T00:23:58.798Z,7.30
2019-03-15T00:26:27.013Z,7.40
2019-03-15T00:28:55.528Z,7.20
2019-03-15T00:31:24.008Z,7.40
2019-03-15T00:33:52.237Z,7.40
2019-03-15T00:36:20.459Z,7.30
2019-03-15T00:38:48.683Z,7.50
2019-03-15T00:41:16.901Z,7.40
2019-03-15T00:43:45.132Z,7.40
2019-03-15T00:46:13.582Z,7.40
2019-03-15T00:48:41.812Z,7.50
2019-03-15T00:51:10.367Z,7.50
2019-03-15T00:53:38.634Z,7.30
2019-03-15T00:56:06.856Z,7.40
2019-03-15T00:58:35.081Z,7.40
2019-03-15T01:01:14.145Z,7.50
2019-03-15T01:03:42.379Z,7.50
2019-03-15T01:06:10.595Z,7.50
2019-03-15T01:08:38.821Z,7.40
2019-03-15T01:11:07.289Z,7.50
2019-03-15T01:13:35.522Z,7.40
2019-03-15T01:16:03.781Z,7.30
2019-03-15T01:18:32.066Z,7.50
2019-03-15T01:21:00.284Z,7.60
2019-03-15T01:23:28.502Z,7.60
2019-03-15T01:25:56.732Z,7.60
2019-03-15T01:28:24.953Z,7.70
2019-03-15T01:30:53.553Z,7.70
2019-03-15T01:33:21.798Z,7.60
2019-03-15T01:35:50.029Z,7.70
2019-03-15T01:38:18.253Z,7.50
2019-03-15T01:40:48.879Z,7.70
2019-03-15T01:43:16.421Z,7.70
2019-03-15T01:45:44.656Z,7.80
2019-03-15T01:48:12.881Z,7.90
2019-03-15T01:50:41.110Z,8.00
2019-03-15T01:53:09.321Z,8.00
2019-03-15T01:55:37.553Z,8.00
2019-03-15T01:58:05.772Z,7.80
2019-03-15T02:00:33.996Z,7.90
2019-03-15T02:03:02.660Z,8.00
2019-03-15T02:05:31.046Z,8.00
2019-03-15T02:08:00.687Z,8.00
2019-03-15T02:10:29.133Z,7.80
2019-03-15T02:12:57.353Z,7.60
2019-03-15T02:15:25.858Z,7.60
2019-03-15T02:17:54.337Z,7.80
2019-03-15T02:20:22.569Z,8.00
2019-03-15T02:22:51.094Z,8.00
2019-03-15T02:25:19.319Z,8.10
2019-03-15T02:27:47.541Z,8.00
2019-03-15T02:30:15.766Z,7.90
2019-03-15T02:32:44.149Z,7.90
2019-03-15T02:35:12.385Z,7.80
2019-03-15T02:37:40.677Z,7.80
2019-03-15T02:40:08.934Z,7.90
2019-03-15T02:42:37.204Z,8.00
2019-03-15T02:45:06.324Z,7.80
2019-03-15T02:47:34.796Z,7.60
2019-03-15T02:50:03.501Z,7.80
2019-03-15T02:52:31.718Z,7.80
2019-03-15T02:54:59.945Z,8.00
2019-03-15T02:57:28.162Z,7.80
2019-03-15T02:59:56.388Z,7.70
2019-03-15T03:02:24.623Z,7.60
2019-03-15T03:04:52.927Z,7.70
2019-03-15T03:07:21.334Z,7.70
2019-03-15T03:09:49.621Z,7.90
2019-03-15T03:12:17.847Z,7.90
2019-03-15T03:14:46.340Z,8.00
2019-03-15T03:17:14.641Z,8.00
2019-03-15T03:19:42.865Z,8.00
2019-03-15T03:22:11.095Z,8.00
2019-03-15T03:24:39.308Z,8.00
2019-03-15T03:27:07.629Z,7.90
2019-03-15T03:29:35.934Z,8.00
2019-03-15T03:32:04.164Z,8.00
2019-03-15T03:34:32.382Z,8.00
2019-03-15T03:37:00.609Z,8.00
2019-03-15T03:39:28.829Z,7.90
2019-03-15T03:41:57.309Z,7.90
2019-03-15T03:44:25.516Z,8.00
2019-03-15T03:46:53.860Z,7.90
2019-03-15T03:49:22.068Z,7.90
2019-03-15T03:51:50.306Z,7.90
2019-03-15T03:54:18.520Z,7.80
2019-03-15T03:56:46.756Z,7.80
2019-03-15T03:59:15.308Z,7.80
2019-03-15T04:01:43.536Z,7.70
2019-03-15T04:04:11.751Z,7.60
2019-03-15T04:06:39.981Z,7.60
2019-03-15T04:09:08.480Z,7.60
2019-03-15T04:11:36.708Z,7.70
2019-03-15T04:14:04.926Z,7.90
2019-03-15T04:16:33.448Z,8.00
2019-03-15T04:19:01.669Z,8.00
2019-03-15T04:21:29.897Z,8.00
2019-03-15T04:23:58.112Z,8.10
2019-03-15T04:26:26.341Z,8.00
2019-03-15T04:28:56.951Z,8.00
2019-03-15T04:31:24.508Z,8.00
2019-03-15T04:33:52.724Z,8.10
2019-03-15T04:36:20.956Z,8.10
2019-03-15T04:38:49.164Z,8.20
2019-03-15T04:41:17.396Z,8.10
2019-03-15T04:43:45.609Z,8.10
2019-03-15T04:46:13.928Z,8.00
2019-03-15T04:48:42.481Z,8.20
2019-03-15T04:51:10.705Z,8.10
2019-03-15T04:53:38.916Z,8.10
2019-03-15T04:56:07.443Z,7.90
2019-03-15T04:58:35.743Z,7.80
2019-03-15T05:01:04.008Z,7.90
2019-03-15T05:03:32.224Z,7.90
2019-03-15T05:06:03.700Z,8.00
2019-03-15T05:08:30.391Z,7.80
2019-03-15T05:10:58.613Z,8.00
2019-03-15T05:13:26.839Z,8.10
2019-03-15T05:15:55.059Z,8.10
2019-03-15T05:18:23.284Z,8.30
2019-03-15T05:20:51.521Z,8.30
2019-03-15T05:23:19.825Z,8.50
2019-03-15T05:25:48.028Z,8.40
2019-03-15T05:28:16.259Z,8.50
2019-03-15T05:30:44.482Z,8.50
2019-03-15T05:33:12.704Z,8.20
2019-03-15T05:35:40.934Z,8.20
2019-03-15T05:38:09.289Z,8.30
2019-03-15T05:40:37.528Z,8.40
2019-03-15T05:43:05.756Z,8.40
2019-03-15T05:45:34.290Z,8.30
2019-03-15T05:48:02.496Z,8.20
2019-03-15T05:50:30.711Z,8.00
2019-03-15T05:52:58.961Z,8.00
2019-03-15T05:55:27.180Z,8.10
2019-03-15T05:57:55.764Z,8.10
2019-03-15T06:00:23.988Z,8.20
2019-03-15T06:02:52.652Z,8.20
2019-03-15T06:05:20.952Z,8.10
2019-03-15T06:07:49.200Z,8.10
2019-03-15T06:10:17.749Z,8.00
2019-03-15T06:12:45.980Z,8.00
2019-03-15T06:15:14.222Z,8.10
2019-03-15T06:17:42.818Z,8.00
2019-03-15T06:20:14.120Z,8.10
2019-03-15T06:22:42.444Z,7.90
2019-03-15T06:25:11.196Z,8.00
2019-03-15T06:27:39.427Z,8.00
2019-03-15T06:30:12.503Z,8.00
2019-03-15T06:32:40.772Z,7.80
2019-03-15T06:35:09.421Z,7.90
2019-03-15T06:37:37.900Z,7.90
2019-03-15T06:40:13.243Z,7.80
2019-03-15T06:42:40.184Z,7.80
2019-03-15T06:45:10.839Z,7.90
2019-03-15T06:47:39.413Z,8.30
2019-03-15T06:50:08.268Z,8.30
2019-03-15T06:52:36.776Z,8.30
2019-03-15T06:55:07.290Z,8.30
2019-03-15T06:57:35.516Z,8.30
2019-03-15T07:00:05.439Z,8.20
2019-03-15T07:02:33.664Z,8.10
2019-03-15T07:05:01.989Z,8.00
2019-03-15T07:07:30.346Z,8.20
2019-03-15T07:09:58.938Z,8.20
2019-03-15T07:12:27.159Z,8.00
2019-03-15T07:14:55.382Z,8.10
2019-03-15T07:17:23.612Z,8.00
2019-03-15T07:19:51.832Z,8.20
2019-03-15T07:22:20.279Z,8.20
2019-03-15T07:24:48.565Z,8.20
2019-03-15T07:27:16.905Z,8.20
2019-03-15T07:29:45.193Z,8.10
2019-03-15T07:32:13.416Z,8.10
2019-03-15T07:34:41.769Z,8.10
2019-03-15T07:37:10.532Z,8.20
2019-03-15T07:39:38.773Z,8.10
2019-03-15T07:42:07.323Z,8.00
2019-03-15T07:44:35.549Z,8.30
2019-03-15T07:47:03.771Z,8.50
2019-03-15T07:49:31.998Z,8.30
2019-03-15T07:52:00.212Z,8.30
2019-03-15T07:54:37.451Z,7.70
2019-03-15T07:56:58.432Z,8.00
2019-03-15T07:59:27.913Z,8.00
2019-03-15T08:01:56.364Z,8.00
2019-03-15T08:04:24.759Z,8.10
2019-03-15T08:06:52.972Z,7.80
2019-03-15T08:09:21.271Z,8.00
2019-03-15T08:11:49.560Z,8.10
2019-03-15T08:14:17.811Z,7.80
2019-03-15T08:16:46.037Z,7.80
2019-03-15T08:19:14.327Z,7.90
2019-03-15T08:21:42.543Z,8.00
2019-03-15T08:24:10.773Z,7.90
2019-03-15T08:26:38.988Z,8.00
2019-03-15T08:29:09.692Z,8.10
2019-03-15T08:31:37.161Z,8.10
2019-03-15T08:34:05.388Z,8.30
2019-03-15T08:36:33.605Z,8.40
2019-03-15T08:39:01.837Z,8.20
2019-03-15T08:41:30.057Z,8.30
2019-03-15T08:43:58.285Z,8.30
2019-03-15T08:46:26.676Z,8.20
2019-03-15T08:48:54.910Z,8.20
2019-03-15T08:51:23.564Z,8.20
2019-03-15T08:53:51.792Z,8.20
2019-03-15T08:56:20.010Z,8.40
2019-03-15T08:58:48.233Z,8.30
2019-03-15T09:01:16.450Z,8.40
2019-03-15T09:03:44.690Z,8.30
2019-03-15T09:06:13.324Z,8.40
2019-03-15T09:08:41.633Z,8.20
2019-03-15T09:11:09.856Z,8.30
2019-03-15T09:13:38.088Z,8.30
2019-03-15T09:16:06.301Z,8.60
2019-03-15T09:18:34.524Z,8.50
2019-03-15T09:21:02.742Z,8.50
2019-03-15T09:23:30.970Z,8.50
2019-03-15T09:25:59.190Z,8.50
2019-03-15T09:28:27.401Z,8.50
2019-03-15T09:30:55.628Z,8.50
2019-03-15T09:33:23.849Z,8.50
2019-03-15T09:35:52.072Z,8.60
2019-03-15T09:38:20.293Z,8.60
2019-03-15T09:40:48.521Z,8.50
2019-03-15T09:43:16.745Z,8.50
2019-03-15T09:45:44.973Z,8.60
2019-03-15T09:48:13.189Z,8.60
2019-03-15T09:50:51.066Z,8.70
2019-03-15T09:53:11.360Z,8.70
2019-03-15T09:55:39.588Z,8.70
2019-03-15T09:58:07.805Z,8.50
2019-03-15T10:00:36.282Z,8.60
2019-03-15T10:03:04.535Z,8.60
2019-03-15T10:05:32.797Z,8.60
2019-03-15T10:08:01.033Z,8.60
2019-03-15T10:10:29.250Z,8.70
2019-03-15T10:13:05.849Z,8.80
2019-03-15T10:15:27.417Z,8.70
2019-03-15T10:17:55.904Z,8.60
2019-03-15T10:20:24.133Z,8.80
2019-03-15T10:23:05.618Z,8.80
2019-03-15T10:25:22.305Z,8.90
2019-03-15T10:27:50.522Z,8.90
2019-03-15T10:30:19.497Z,9.10
2019-03-15T10:32:47.705Z,9.10
2019-03-15T10:35:15.937Z,9.10
2019-03-15T10:37:44.474Z,9.20
2019-03-15T10:40:18.180Z,9.30
2019-03-15T10:42:46.399Z,9.40
2019-03-15T10:45:14.632Z,9.30
2019-03-15T10:47:42.941Z,9.40
2019-03-15T10:50:13.295Z,9.60
2019-03-15T10:52:41.508Z,9.60
2019-03-15T10:55:09.916Z,9.60
2019-03-15T10:57:38.129Z,9.60
2019-03-15T11:00:10.039Z,9.60
2019-03-15T11:02:38.240Z,9.60
2019-03-15T11:05:08.411Z,9.60
2019-03-15T11:07:36.624Z,9.60
2019-03-15T11:10:06.893Z,9.60
2019-03-15T11:12:35.396Z,9.70
2019-03-15T11:15:03.990Z,9.90
2019-03-15T11:17:32.200Z,10.00
2019-03-15T11:20:00.549Z,10.00
2019-03-15T11:22:28.828Z,10.00
2019-03-15T11:24:57.067Z,10.00
2019-03-15T11:27:25.293Z,10.00
2019-03-15T11:29:53.858Z,10.00
2019-03-15T11:32:22.076Z,10.10
2019-03-15T11:35:02.740Z,10.20
2019-03-15T11:37:30.947Z,10.10
2019-03-15T11:39:59.176Z,10.20
2019-03-15T11:42:27.396Z,10.10
2019-03-15T11:44:55.624Z,10.20
2019-03-15T11:47:23.866Z,10.20
2019-03-15T11:49:52.088Z,10.30
2019-03-15T11:52:20.315Z,10.30
2019-03-15T11:54:49.958Z,10.40
2019-03-15T11:57:18.400Z,10.40
2019-03-15T11:59:46.633Z,10.20
2019-03-15T12:02:14.865Z,10.30
2019-03-15T12:04:43.108Z,10.30
2019-03-15T12:07:11.324Z,10.40
2019-03-15T12:09:41.035Z,10.40
2019-03-15T12:12:09.917Z,10.40
2019-03-15T12:14:41.249Z,10.40
2019-03-15T12:17:08.400Z,10.40
2019-03-15T12:19:36.618Z,10.30
2019-03-15T12:22:06.523Z,10.30
2019-03-15T12:24:34.816Z,10.30
2019-03-15T12:27:03.046Z,10.40
2019-03-15T12:29:31.269Z,10.50
2019-03-15T12:31:59.500Z,10.40
2019-03-15T12:34:27.724Z,10.50
2019-03-15T12:36:55.958Z,10.50
2019-03-15T12:39:24.421Z,10.40
2019-03-15T12:41:52.649Z,10.50
2019-03-15T12:44:20.869Z,10.50
2019-03-15T12:46:49.104Z,10.50
2019-03-15T12:49:17.649Z,10.50
2019-03-15T12:51:45.890Z,10.50
2019-03-15T12:54:14.105Z,10.60
2019-03-15T12:56:53.255Z,10.60
2019-03-15T12:59:12.289Z,10.60
2019-03-15T13:01:40.520Z,10.60
2019-03-15T13:04:09.032Z,10.60
2019-03-15T13:06:37.261Z,10.70
2019-03-15T13:09:06.257Z,10.80
2019-03-15T13:11:34.484Z,10.80
2019-03-15T13:14:02.707Z,10.80
2019-03-15T13:16:30.939Z,10.80
2019-03-15T13:18:59.165Z,10.80
2019-03-15T13:21:27.396Z,10.80
2019-03-15T13:23:55.617Z,10.90
2019-03-15T13:26:23.848Z,11.00
2019-03-15T13:28:52.080Z,11.00
2019-03-15T13:31:20.304Z,11.00
2019-03-15T13:33:48.596Z,11.00
2019-03-15T13:36:16.834Z,11.10
2019-03-15T13:38:45.052Z,11.10
2019-03-15T13:42:07.481Z,11.10
2019-03-15T13:44:35.744Z,11.10
2019-03-15T13:47:03.985Z,11.10
2019-03-15T13:49:32.200Z,11.10
2019-03-15T13:52:00.436Z,11.10
2019-03-15T13:54:28.658Z,11.10
2019-03-15T13:56:56.892Z,11.00
2019-03-15T13:59:25.108Z,11.00
2019-03-15T14:01:53.665Z,11.10
2019-03-15T14:04:21.908Z,11.20
2019-03-15T14:06:50.132Z,11.20
2019-03-15T14:09:18.341Z,11.20
2019-03-15T14:11:46.577Z,11.10
2019-03-15T14:14:14.794Z,11.10
2019-03-15T14:16:43.076Z,11.20
2019-03-15T14:19:11.301Z,11.30
2019-03-15T14:21:39.533Z,11.20
2019-03-15T14:24:07.748Z,11.30
2019-03-15T14:26:35.981Z,11.30
2019-03-15T14:29:04.197Z,11.20
2019-03-15T14:31:32.424Z,11.30
2019-03-15T14:34:00.652Z,11.20
2019-03-15T14:36:28.893Z,11.20
2019-03-15T14:38:57.724Z,11.20
2019-03-15T14:41:26.025Z,11.10
2019-03-15T14:43:54.454Z,11.20
2019-03-15T14:46:22.748Z,11.30
2019-03-15T14:48:50.969Z,11.30
2019-03-15T14:51:19.589Z,11.40
2019-03-15T14:53:47.904Z,11.40
2019-03-15T14:56:16.124Z,11.40
2019-03-15T14:58:44.356Z,11.30
2019-03-15T15:01:12.914Z,11.30
2019-03-15T15:03:41.153Z,11.40
2019-03-15T15:06:09.452Z,11.40
2019-03-15T15:08:37.689Z,11.50
2019-03-15T15:11:05.908Z,11.50
2019-03-15T15:13:34.136Z,11.50
2019-03-15T15:16:02.360Z,11.50
2019-03-15T15:18:30.596Z,11.60
2019-03-15T15:20:58.825Z,11.50
2019-03-15T15:23:27.052Z,11.50
2019-03-15T15:25:55.277Z,11.50
2019-03-15T15:28:23.504Z,11.40
2019-03-15T15:30:51.724Z,11.50
2019-03-15T15:33:19.953Z,11.50
2019-03-15T15:35:48.182Z,11.30
2019-03-15T15:38:16.408Z,11.40
2019-03-15T15:40:44.926Z,11.40
2019-03-15T15:43:13.161Z,11.40
2019-03-15T15:45:41.688Z,11.50
2019-03-15T15:48:10.169Z,11.50
2019-03-15T15:50:38.388Z,11.40
2019-03-15T15:53:06.625Z,11.50
2019-03-15T15:55:34.850Z,11.30
2019-03-15T15:58:03.090Z,11.30
2019-03-15T16:00:31.304Z,11.40
2019-03-15T16:02:59.826Z,11.40
2019-03-15T16:05:28.300Z,11.40
2019-03-15T16:07:56.906Z,11.40
2019-03-15T16:10:25.233Z,11.40
2019-03-15T16:12:53.477Z,11.40
2019-03-15T16:15:21.698Z,11.30
2019-03-15T16:17:50.006Z,11.30
2019-03-15T16:20:18.285Z,11.30
2019-03-15T16:22:46.540Z,11.30
2019-03-15T16:25:15.027Z,11.60
2019-03-15T16:27:43.256Z,11.60
2019-03-15T16:30:16.363Z,11.50
2019-03-15T16:32:44.595Z,11.60
2019-03-15T16:35:14.076Z,11.40
2019-03-15T16:37:42.309Z,11.40
2019-03-15T16:40:14.602Z,11.40
2019-03-15T16:42:43.117Z,11.40
2019-03-15T16:45:16.724Z,11.30
2019-03-15T16:47:45.017Z,11.40
2019-03-15T16:50:13.768Z,11.30
2019-03-15T16:52:42.000Z,11.30
2019-03-15T16:55:11.562Z,11.30
2019-03-15T16:57:39.788Z,11.40
2019-03-15T17:00:11.277Z,11.30
2019-03-15T17:02:39.504Z,11.30
2019-03-15T17:05:09.574Z,11.30
2019-03-15T17:07:37.793Z,11.30
2019-03-15T17:10:17.182Z,11.30
2019-03-15T17:12:45.640Z,11.30
2019-03-15T17:15:18.874Z,11.30
2019-03-15T17:17:47.534Z,11.20
2019-03-15T17:20:16.125Z,11.10
2019-03-15T17:22:44.356Z,11.10
2019-03-15T17:25:12.877Z,11.20
2019-03-15T17:27:41.108Z,11.20
2019-03-15T17:30:12.345Z,11.20
2019-03-15T17:32:40.891Z,11.30
2019-03-15T17:35:11.095Z,11.20
2019-03-15T17:37:39.372Z,11.30
2019-03-15T17:40:10.553Z,11.30
2019-03-15T17:42:38.784Z,11.20
2019-03-15T17:45:07.759Z,11.30
2019-03-15T17:47:35.987Z,11.40
2019-03-15T17:50:16.485Z,11.50
2019-03-15T17:52:45.016Z,11.30
2019-03-15T17:55:15.444Z,11.30
2019-03-15T17:57:51.074Z,11.40
2019-03-15T18:00:35.875Z,11.30
2019-03-15T18:03:18.869Z,11.20
2019-03-15T18:05:41.935Z,11.20
2019-03-15T18:08:10.274Z,11.20
2019-03-15T18:10:38.514Z,11.10
2019-03-15T18:13:06.771Z,11.10
2019-03-15T18:15:35.385Z,11.10
2019-03-15T18:18:03.611Z,11.20
2019-03-15T18:20:31.872Z,11.20
2019-03-15T18:23:00.516Z,11.10
2019-03-15T18:25:28.739Z,11.00
2019-03-15T18:27:56.987Z,11.10
2019-03-15T18:30:25.255Z,11.10
2019-03-15T18:32:53.499Z,11.10
2019-03-15T18:35:33.081Z,10.90
2019-03-15T18:37:51.757Z,11.10
2019-03-15T18:40:20.552Z,11.00
2019-03-15T18:42:48.799Z,11.00
2019-03-15T18:45:17.890Z,11.20
2019-03-15T18:47:46.149Z,11.10
2019-03-15T18:50:25.126Z,11.10
2019-03-15T18:52:53.377Z,11.10
2019-03-15T18:55:21.913Z,11.10
2019-03-15T18:57:50.390Z,11.10
2019-03-15T19:00:20.828Z,11.20
2019-03-15T19:02:49.057Z,11.20
2019-03-15T19:05:17.336Z,11.20
2019-03-15T19:07:45.564Z,11.10
2019-03-15T19:10:14.756Z,11.10
2019-03-15T19:12:42.970Z,11.10
2019-03-15T19:15:13.220Z,11.20
2019-03-15T19:17:41.819Z,11.20
2019-03-15T19:20:12.759Z,11.20
2019-03-15T19:22:40.981Z,11.20
2019-03-15T19:25:10.471Z,11.20
2019-03-15T19:27:38.753Z,11.20
2019-03-15T19:30:15.159Z,11.10
2019-03-15T19:32:43.379Z,11.00
2019-03-15T19:35:11.938Z,11.00
2019-03-15T19:37:40.164Z,11.00
2019-03-15T19:40:20.521Z,11.10
2019-03-15T19:42:48.743Z,11.10
2019-03-15T19:45:17.252Z,11.10
2019-03-15T19:47:45.567Z,10.90
2019-03-15T19:50:18.557Z,10.90
2019-03-15T19:52:46.784Z,11.00
2019-03-15T19:55:15.625Z,11.00
2019-03-15T19:57:43.828Z,11.00
2019-03-15T20:00:16.963Z,10.90
2019-03-15T20:02:45.542Z,10.90
2019-03-15T20:05:13.918Z,11.00
2019-03-15T20:07:42.202Z,10.90
2019-03-15T20:10:21.942Z,10.90
2019-03-15T20:12:50.493Z,10.80
2019-03-15T20:15:18.732Z,10.90
2019-03-15T20:17:47.537Z,10.90
2019-03-15T20:20:17.980Z,10.90
2019-03-15T20:22:46.214Z,10.80
2019-03-15T20:25:16.340Z,10.80
2019-03-15T20:27:44.561Z,10.90
2019-03-15T20:30:26.171Z,10.90
2019-03-15T20:32:51.986Z,11.00
2019-03-15T20:35:20.217Z,11.00
2019-03-15T20:37:48.424Z,10.90
2019-03-15T20:40:16.664Z,10.90
2019-03-15T20:42:44.900Z,10.90
2019-03-15T20:45:22.710Z,10.90
2019-03-15T20:47:50.933Z,10.80
2019-03-15T20:50:19.180Z,10.80
2019-03-15T20:52:47.414Z,10.80
2019-03-15T20:55:15.751Z,10.90
2019-03-15T20:57:43.977Z,10.90
2019-03-15T21:00:19.099Z,10.90
2019-03-15T21:02:47.351Z,10.90
2019-03-15T21:05:15.660Z,11.00
2019-03-15T21:07:44.154Z,11.00
2019-03-15T21:10:14.796Z,10.70
2019-03-15T21:12:43.027Z,10.60
2019-03-15T21:15:15.288Z,10.80
2019-03-15T21:17:43.891Z,10.70
2019-03-15T21:20:14.524Z,10.70
2019-03-15T21:22:42.783Z,10.70
2019-03-15T21:25:11.091Z,10.70
2019-03-15T21:27:52.474Z,10.70
2019-03-15T21:30:20.613Z,10.70
2019-03-15T21:32:49.102Z,10.70
2019-03-15T21:35:17.345Z,10.80
2019-03-15T21:37:45.674Z,10.80
2019-03-15T21:40:17.949Z,10.80
2019-03-15T21:42:46.182Z,10.70
2019-03-15T21:45:14.413Z,11.00
2019-03-15T21:47:42.680Z,11.90
2019-03-15T21:50:14.526Z,11.50
2019-03-15T21:52:42.743Z,11.50
2019-03-15T21:55:10.990Z,11.30
2019-03-15T21:57:39.217Z,11.20
2019-03-15T22:00:15.393Z,11.10
2019-03-15T22:02:43.608Z,11.20
2019-03-15T22:05:11.835Z,11.00
2019-03-15T22:07:40.074Z,11.00
2019-03-15T22:10:11.289Z,10.80
2019-03-15T22:12:39.531Z,10.80
2019-03-15T22:15:09.387Z,10.90
2019-03-15T22:17:38.022Z,10.80
2019-03-15T22:20:09.192Z,11.00
2019-03-15T22:22:37.076Z,11.00
2019-03-15T22:25:06.749Z,10.90
2019-03-15T22:27:35.351Z,10.90
2019-03-15T22:30:04.816Z,10.90
2019-03-15T22:32:33.330Z,10.80
2019-03-15T22:35:01.559Z,10.80
2019-03-15T22:37:29.798Z,10.70
2019-03-15T22:39:58.027Z,10.80
2019-03-15T22:42:26.264Z,10.80
2019-03-15T22:44:54.827Z,10.80
2019-03-15T22:47:23.406Z,10.70
2019-03-15T22:49:51.986Z,10.80
2019-03-15T22:52:20.242Z,10.90
2019-03-15T22:54:48.470Z,10.90
2019-03-15T22:57:17.845Z,10.90
2019-03-15T22:59:46.422Z,11.00
2019-03-15T23:02:14.663Z,11.00
2019-03-15T23:04:43.212Z,10.90
2019-03-15T23:07:11.882Z,10.90
2019-03-15T23:09:40.112Z,10.90
2019-03-15T23:12:08.628Z,10.90
2019-03-15T23:14:37.105Z,10.90
2019-03-15T23:17:05.358Z,10.90
2019-03-15T23:19:33.865Z,10.80
2019-03-15T23:22:02.102Z,10.80
2019-03-15T23:24:30.333Z,10.80
2019-03-15T23:26:58.900Z,10.80
2019-03-15T23:29:27.376Z,10.80
2019-03-15T23:31:55.620Z,10.80
2019-03-15T23:34:24.341Z,10.80
2019-03-15T23:36:52.934Z,10.80
2019-03-15T23:39:21.229Z,10.80
2019-03-15T23:41:49.484Z,10.70
2019-03-15T23:44:17.788Z,10.80
2019-03-15T23:46:46.072Z,10.80
2019-03-15T23:49:14.292Z,10.80
2019-03-15T23:51:42.539Z,10.80
2019-03-15T23:54:10.759Z,10.80
2019-03-15T23:56:39.000Z,11.00
2019-03-15T23:59:07.233Z,10.80
